sensor_id;sensor_type;location;lat;lon;timestamp;pressure;altitude;pressure_sealevel;temperature;humidity
11343;BME280;5726;42.160;24.746;2023-07-20T00:01:10;99054.44;;;28.69;57.86
11343;BME280;5726;42.160;24.746;2023-07-20T00:03:36;99058.41;;;28.91;56.91
11343;BME280;5726;42.160;24.746;2023-07-20T00:06:01;99069.22;;;28.82;57.05
11343;BME280;5726;42.160;24.746;2023-07-20T00:08:27;99074.63;;;28.89;56.80
11343;BME280;5726;42.160;24.746;2023-07-20T00:10:52;99073.72;;;28.95;57.24
11343;BME280;5726;42.160;24.746;2023-07-20T00:13:18;99078.47;;;28.95;56.22
11343;BME280;5726;42.160;24.746;2023-07-20T00:15:44;99072.81;;;28.79;56.33
11343;BME280;5726;42.160;24.746;2023-07-20T00:18:09;99061.16;;;28.91;55.78
11343;BME280;5726;42.160;24.746;2023-07-20T00:20:35;99038.94;;;28.75;55.69
11343;BME280;5726;42.160;24.746;2023-07-20T00:23:01;99021.56;;;28.78;55.41
11343;BME280;5726;42.160;24.746;2023-07-20T00:25:26;99012.31;;;28.88;54.28
11343;BME280;5726;42.160;24.746;2023-07-20T00:27:52;99000.81;;;28.70;54.86
11343;BME280;5726;42.160;24.746;2023-07-20T00:30:17;98990.91;;;28.46;54.93
11343;BME280;5726;42.160;24.746;2023-07-20T00:32:44;98995.13;;;28.54;54.39
11343;BME280;5726;42.160;24.746;2023-07-20T00:35:09;98988.81;;;28.54;54.37
11343;BME280;5726;42.160;24.746;2023-07-20T00:37:36;98983.72;;;28.79;52.79
11343;BME280;5726;42.160;24.746;2023-07-20T00:40:02;98976.16;;;29.02;52.32
11343;BME280;5726;42.160;24.746;2023-07-20T00:42:30;98970.56;;;28.86;52.34
11343;BME280;5726;42.160;24.746;2023-07-20T00:44:56;98962.84;;;28.97;52.39
11343;BME280;5726;42.160;24.746;2023-07-20T00:47:21;98958.03;;;28.82;52.30
11343;BME280;5726;42.160;24.746;2023-07-20T00:49:47;98963.94;;;29.03;51.80
11343;BME280;5726;42.160;24.746;2023-07-20T00:52:13;98968.94;;;29.31;50.81
11343;BME280;5726;42.160;24.746;2023-07-20T00:54:40;98975.78;;;29.61;49.93
11343;BME280;5726;42.160;24.746;2023-07-20T00:57:07;98977.41;;;29.78;48.60
11343;BME280;5726;42.160;24.746;2023-07-20T00:59:34;98979.38;;;29.78;48.57
11343;BME280;5726;42.160;24.746;2023-07-20T01:02:00;98982.88;;;29.43;49.46
11343;BME280;5726;42.160;24.746;2023-07-20T01:04:25;98990.19;;;29.34;50.15
11343;BME280;5726;42.160;24.746;2023-07-20T01:09:42;98967.56;;;29.77;48.46
11343;BME280;5726;42.160;24.746;2023-07-20T01:12:30;98966.72;;;29.61;48.88
11343;BME280;5726;42.160;24.746;2023-07-20T01:14:58;98968.34;;;29.58;48.62
11343;BME280;5726;42.160;24.746;2023-07-20T01:17:23;98954.06;;;29.44;48.87
11343;BME280;5726;42.160;24.746;2023-07-20T01:19:49;98952.13;;;29.60;48.92
11343;BME280;5726;42.160;24.746;2023-07-20T01:30:43;98941.88;;;29.96;48.07
11343;BME280;5726;42.160;24.746;2023-07-20T01:33:13;98942.94;;;30.02;47.64
11343;BME280;5726;42.160;24.746;2023-07-20T01:35:41;98941.28;;;30.04;47.48
11343;BME280;5726;42.160;24.746;2023-07-20T01:38:08;98933.59;;;30.28;47.06
11343;BME280;5726;42.160;24.746;2023-07-20T01:40:35;98939.66;;;30.39;46.53
11343;BME280;5726;42.160;24.746;2023-07-20T01:43:02;98943.91;;;30.59;46.13
11343;BME280;5726;42.160;24.746;2023-07-20T01:45:27;98944.50;;;30.50;46.54
11343;BME280;5726;42.160;24.746;2023-07-20T01:47:53;98938.00;;;30.57;46.11
11343;BME280;5726;42.160;24.746;2023-07-20T01:50:18;98930.88;;;30.72;45.91
11343;BME280;5726;42.160;24.746;2023-07-20T01:52:44;98931.69;;;30.72;45.83
11343;BME280;5726;42.160;24.746;2023-07-20T01:55:09;98936.78;;;30.74;45.77
11343;BME280;5726;42.160;24.746;2023-07-20T01:57:35;98935.84;;;30.64;45.53
11343;BME280;5726;42.160;24.746;2023-07-20T02:00:00;98945.16;;;30.70;45.69
11343;BME280;5726;42.160;24.746;2023-07-20T02:02:27;98939.13;;;30.75;46.18
11343;BME280;5726;42.160;24.746;2023-07-20T02:04:53;98934.94;;;30.83;45.96
11343;BME280;5726;42.160;24.746;2023-07-20T02:07:19;98947.78;;;30.93;45.61
11343;BME280;5726;42.160;24.746;2023-07-20T02:09:44;98946.03;;;30.99;45.60
11343;BME280;5726;42.160;24.746;2023-07-20T02:12:09;98944.91;;;30.96;45.23
11343;BME280;5726;42.160;24.746;2023-07-20T02:14:35;98947.94;;;31.02;45.52
11343;BME280;5726;42.160;24.746;2023-07-20T02:17:00;98951.56;;;30.99;45.73
11343;BME280;5726;42.160;24.746;2023-07-20T02:19:27;98950.69;;;31.02;45.35
11343;BME280;5726;42.160;24.746;2023-07-20T02:21:52;98952.91;;;31.07;45.00
11343;BME280;5726;42.160;24.746;2023-07-20T02:24:18;98958.34;;;31.10;45.30
11343;BME280;5726;42.160;24.746;2023-07-20T02:26:43;98952.63;;;31.45;44.20
11343;BME280;5726;42.160;24.746;2023-07-20T02:29:09;98948.44;;;31.25;45.36
11343;BME280;5726;42.160;24.746;2023-07-20T02:31:37;98955.50;;;31.14;45.38
11343;BME280;5726;42.160;24.746;2023-07-20T02:34:07;98953.25;;;31.37;43.96
11343;BME280;5726;42.160;24.746;2023-07-20T02:36:34;98945.91;;;31.31;44.20
11343;BME280;5726;42.160;24.746;2023-07-20T02:38:59;98935.22;;;30.89;45.63
11343;BME280;5726;42.160;24.746;2023-07-20T02:41:25;98934.63;;;30.81;45.65
11343;BME280;5726;42.160;24.746;2023-07-20T02:43:50;98933.31;;;30.86;45.53
11343;BME280;5726;42.160;24.746;2023-07-20T02:46:16;98936.44;;;30.88;46.14
11343;BME280;5726;42.160;24.746;2023-07-20T02:48:41;98943.94;;;30.87;46.33
11343;BME280;5726;42.160;24.746;2023-07-20T02:51:07;98951.84;;;30.89;46.21
11343;BME280;5726;42.160;24.746;2023-07-20T02:53:33;98944.56;;;30.94;46.26
11343;BME280;5726;42.160;24.746;2023-07-20T02:55:58;98940.81;;;31.01;45.67
11343;BME280;5726;42.160;24.746;2023-07-20T02:58:24;98933.38;;;30.98;46.14
11343;BME280;5726;42.160;24.746;2023-07-20T03:00:49;98931.31;;;31.02;46.24
11343;BME280;5726;42.160;24.746;2023-07-20T03:03:15;98933.38;;;30.98;46.35
11343;BME280;5726;42.160;24.746;2023-07-20T03:05:41;98932.16;;;31.27;45.49
11343;BME280;5726;42.160;24.746;2023-07-20T03:08:06;98934.53;;;31.13;45.87
11343;BME280;5726;42.160;24.746;2023-07-20T03:10:32;98932.34;;;30.92;46.47
11343;BME280;5726;42.160;24.746;2023-07-20T03:12:58;98941.44;;;30.92;47.37
11343;BME280;5726;42.160;24.746;2023-07-20T03:15:23;98934.16;;;30.98;47.16
11343;BME280;5726;42.160;24.746;2023-07-20T03:17:48;98935.81;;;30.96;45.83
11343;BME280;5726;42.160;24.746;2023-07-20T03:20:14;98934.06;;;30.86;46.10
11343;BME280;5726;42.160;24.746;2023-07-20T03:22:39;98931.91;;;30.93;47.00
11343;BME280;5726;42.160;24.746;2023-07-20T03:25:05;98934.47;;;30.72;46.79
11343;BME280;5726;42.160;24.746;2023-07-20T03:27:31;98940.31;;;30.74;46.83
11343;BME280;5726;42.160;24.746;2023-07-20T03:29:56;98934.19;;;30.83;46.69
11343;BME280;5726;42.160;24.746;2023-07-20T03:32:22;98933.28;;;31.01;46.34
11343;BME280;5726;42.160;24.746;2023-07-20T03:34:47;98923.91;;;31.11;46.50
11343;BME280;5726;42.160;24.746;2023-07-20T03:37:13;98926.25;;;31.25;46.40
11343;BME280;5726;42.160;24.746;2023-07-20T03:39:38;98922.47;;;31.47;45.93
11343;BME280;5726;42.160;24.746;2023-07-20T03:42:04;98913.31;;;31.63;44.83
11343;BME280;5726;42.160;24.746;2023-07-20T03:44:30;98910.88;;;31.89;44.46
11343;BME280;5726;42.160;24.746;2023-07-20T03:46:56;98910.88;;;32.14;43.87
11343;BME280;5726;42.160;24.746;2023-07-20T03:49:21;98912.69;;;32.21;43.43
11343;BME280;5726;42.160;24.746;2023-07-20T03:51:46;98910.44;;;32.28;43.37
11343;BME280;5726;42.160;24.746;2023-07-20T03:54:12;98916.66;;;32.44;42.72
11343;BME280;5726;42.160;24.746;2023-07-20T03:56:37;98918.47;;;32.72;42.67
11343;BME280;5726;42.160;24.746;2023-07-20T03:59:03;98924.44;;;32.83;42.56
11343;BME280;5726;42.160;24.746;2023-07-20T04:01:28;98921.31;;;33.15;42.01
11343;BME280;5726;42.160;24.746;2023-07-20T04:03:54;98919.56;;;33.30;40.90
11343;BME280;5726;42.160;24.746;2023-07-20T04:06:19;98923.06;;;33.42;40.90
11343;BME280;5726;42.160;24.746;2023-07-20T04:08:45;98930.91;;;33.56;40.11
11343;BME280;5726;42.160;24.746;2023-07-20T04:11:12;98933.09;;;33.61;40.41
11343;BME280;5726;42.160;24.746;2023-07-20T04:13:39;98924.84;;;33.49;40.71
11343;BME280;5726;42.160;24.746;2023-07-20T04:16:05;98928.94;;;33.66;40.45
11343;BME280;5726;42.160;24.746;2023-07-20T04:18:30;98921.66;;;33.59;40.40
11343;BME280;5726;42.160;24.746;2023-07-20T04:20:56;98929.94;;;33.50;41.01
11343;BME280;5726;42.160;24.746;2023-07-20T04:23:21;98932.63;;;32.99;42.21
11343;BME280;5726;42.160;24.746;2023-07-20T04:25:47;98937.81;;;32.63;42.55
11343;BME280;5726;42.160;24.746;2023-07-20T04:28:12;98939.50;;;32.61;42.85
11343;BME280;5726;42.160;24.746;2023-07-20T04:30:39;98935.41;;;32.86;42.72
11343;BME280;5726;42.160;24.746;2023-07-20T04:33:05;98938.50;;;32.88;42.59
11343;BME280;5726;42.160;24.746;2023-07-20T04:38:16;98948.59;;;32.36;43.57
11343;BME280;5726;42.160;24.746;2023-07-20T04:40:46;98943.72;;;32.53;43.17
11343;BME280;5726;42.160;24.746;2023-07-20T04:43:12;98945.09;;;32.82;43.50
11343;BME280;5726;42.160;24.746;2023-07-20T04:45:38;98940.50;;;33.00;43.46
11343;BME280;5726;42.160;24.746;2023-07-20T04:48:09;98955.59;;;33.12;42.55
11343;BME280;5726;42.160;24.746;2023-07-20T04:50:37;98957.97;;;33.22;42.88
11343;BME280;5726;42.160;24.746;2023-07-20T04:53:02;98963.00;;;33.15;43.40
11343;BME280;5726;42.160;24.746;2023-07-20T04:55:28;98962.63;;;33.25;43.09
11343;BME280;5726;42.160;24.746;2023-07-20T04:57:53;98967.50;;;33.34;43.97
11343;BME280;5726;42.160;24.746;2023-07-20T05:00:19;98967.56;;;33.42;43.34
11343;BME280;5726;42.160;24.746;2023-07-20T05:02:45;98963.97;;;33.54;43.16
11343;BME280;5726;42.160;24.746;2023-07-20T05:05:12;98968.69;;;33.66;42.71
11343;BME280;5726;42.160;24.746;2023-07-20T05:07:38;98960.66;;;33.68;42.80
11343;BME280;5726;42.160;24.746;2023-07-20T05:10:03;98962.16;;;33.60;43.44
11343;BME280;5726;42.160;24.746;2023-07-20T05:12:30;98958.19;;;33.28;44.17
11343;BME280;5726;42.160;24.746;2023-07-20T05:14:55;98967.97;;;33.53;43.67
11343;BME280;5726;42.160;24.746;2023-07-20T05:17:20;98962.50;;;33.92;41.77
11343;BME280;5726;42.160;24.746;2023-07-20T05:19:46;98963.03;;;34.09;41.78
11343;BME280;5726;42.160;24.746;2023-07-20T05:22:13;98959.41;;;34.30;41.00
11343;BME280;5726;42.160;24.746;2023-07-20T05:24:39;98948.06;;;33.85;41.17
11343;BME280;5726;42.160;24.746;2023-07-20T05:27:04;98949.63;;;33.86;41.47
11343;BME280;5726;42.160;24.746;2023-07-20T05:29:30;98953.72;;;34.33;41.16
11343;BME280;5726;42.160;24.746;2023-07-20T05:31:55;98956.34;;;35.02;38.99
11343;BME280;5726;42.160;24.746;2023-07-20T05:34:21;98954.34;;;35.47;38.37
11343;BME280;5726;42.160;24.746;2023-07-20T05:37:08;98953.59;;;36.06;36.82
11343;BME280;5726;42.160;24.746;2023-07-20T05:39:34;98945.03;;;36.09;36.55
11343;BME280;5726;42.160;24.746;2023-07-20T05:41:59;98946.97;;;36.35;35.95
11343;BME280;5726;42.160;24.746;2023-07-20T05:44:24;98943.16;;;36.47;35.42
11343;BME280;5726;42.160;24.746;2023-07-20T05:46:50;98940.16;;;36.83;35.04
11343;BME280;5726;42.160;24.746;2023-07-20T05:49:15;98942.81;;;37.38;33.74
11343;BME280;5726;42.160;24.746;2023-07-20T05:51:41;98929.44;;;37.85;33.11
11343;BME280;5726;42.160;24.746;2023-07-20T05:54:06;98935.28;;;38.16;32.32
11343;BME280;5726;42.160;24.746;2023-07-20T05:56:31;98932.66;;;38.27;31.41
11343;BME280;5726;42.160;24.746;2023-07-20T05:58:57;98923.53;;;37.98;31.99
11343;BME280;5726;42.160;24.746;2023-07-20T06:01:22;98921.09;;;38.20;31.51
11343;BME280;5726;42.160;24.746;2023-07-20T06:03:48;98919.06;;;38.20;31.62
11343;BME280;5726;42.160;24.746;2023-07-20T06:06:13;98911.16;;;38.19;31.57
11343;BME280;5726;42.160;24.746;2023-07-20T06:08:40;98914.06;;;38.10;32.00
11343;BME280;5726;42.160;24.746;2023-07-20T06:11:05;98898.56;;;38.29;31.25
11343;BME280;5726;42.160;24.746;2023-07-20T06:13:31;98898.94;;;38.36;31.06
11343;BME280;5726;42.160;24.746;2023-07-20T06:15:56;98900.53;;;38.42;30.86
11343;BME280;5726;42.160;24.746;2023-07-20T06:18:24;98901.75;;;38.22;31.69
11343;BME280;5726;42.160;24.746;2023-07-20T06:20:51;98905.09;;;38.06;31.92
11343;BME280;5726;42.160;24.746;2023-07-20T06:23:18;98903.88;;;38.27;32.01
11343;BME280;5726;42.160;24.746;2023-07-20T06:25:44;98905.13;;;38.60;31.00
11343;BME280;5726;42.160;24.746;2023-07-20T06:28:09;98906.91;;;38.43;30.93
11343;BME280;5726;42.160;24.746;2023-07-20T06:30:35;98898.19;;;38.55;30.89
11343;BME280;5726;42.160;24.746;2023-07-20T06:33:00;98894.91;;;38.23;31.84
11343;BME280;5726;42.160;24.746;2023-07-20T06:35:25;98889.19;;;38.31;31.68
11343;BME280;5726;42.160;24.746;2023-07-20T06:37:51;98897.06;;;38.67;30.79
11343;BME280;5726;42.160;24.746;2023-07-20T06:40:17;98899.00;;;39.21;29.61
11343;BME280;5726;42.160;24.746;2023-07-20T06:42:43;98906.72;;;39.51;28.71
11343;BME280;5726;42.160;24.746;2023-07-20T06:45:09;98904.94;;;39.28;29.56
11343;BME280;5726;42.160;24.746;2023-07-20T06:47:34;98889.66;;;39.54;28.14
11343;BME280;5726;42.160;24.746;2023-07-20T06:50:00;98898.03;;;39.74;28.42
11343;BME280;5726;42.160;24.746;2023-07-20T06:52:25;98897.16;;;39.93;28.23
11343;BME280;5726;42.160;24.746;2023-07-20T06:54:50;98899.69;;;40.22;27.75
11343;BME280;5726;42.160;24.746;2023-07-20T06:57:16;98895.56;;;40.59;27.86
11343;BME280;5726;42.160;24.746;2023-07-20T06:59:42;98892.50;;;40.21;28.19
11343;BME280;5726;42.160;24.746;2023-07-20T07:02:07;98895.63;;;40.28;27.49
11343;BME280;5726;42.160;24.746;2023-07-20T07:04:33;98905.28;;;40.58;27.80
11343;BME280;5726;42.160;24.746;2023-07-20T07:06:59;98894.28;;;40.60;27.67
11343;BME280;5726;42.160;24.746;2023-07-20T07:09:25;98897.81;;;40.50;27.42
11343;BME280;5726;42.160;24.746;2023-07-20T07:11:50;98894.50;;;40.51;27.90
11343;BME280;5726;42.160;24.746;2023-07-20T07:14:16;98885.00;;;40.96;26.76
11343;BME280;5726;42.160;24.746;2023-07-20T07:16:42;98893.59;;;40.29;27.41
11343;BME280;5726;42.160;24.746;2023-07-20T07:19:07;98887.91;;;40.54;26.82
11343;BME280;5726;42.160;24.746;2023-07-20T07:21:33;98883.88;;;40.77;26.02
11343;BME280;5726;42.160;24.746;2023-07-20T07:23:59;98883.66;;;40.86;25.62
11343;BME280;5726;42.160;24.746;2023-07-20T07:26:25;98883.16;;;40.93;26.33
11343;BME280;5726;42.160;24.746;2023-07-20T07:28:50;98884.03;;;41.10;26.62
11343;BME280;5726;42.160;24.746;2023-07-20T07:31:16;98885.06;;;41.18;26.22
11343;BME280;5726;42.160;24.746;2023-07-20T07:33:41;98882.25;;;41.18;25.42
11343;BME280;5726;42.160;24.746;2023-07-20T07:36:07;98879.66;;;41.09;25.50
11343;BME280;5726;42.160;24.746;2023-07-20T07:38:32;98872.63;;;40.77;26.26
11343;BME280;5726;42.160;24.746;2023-07-20T07:40:58;98869.41;;;40.42;26.96
11343;BME280;5726;42.160;24.746;2023-07-20T07:43:24;98879.03;;;39.94;27.99
11343;BME280;5726;42.160;24.746;2023-07-20T07:45:49;98875.44;;;39.94;27.76
11343;BME280;5726;42.160;24.746;2023-07-20T07:48:15;98875.91;;;40.18;27.63
11343;BME280;5726;42.160;24.746;2023-07-20T07:50:40;98884.13;;;40.27;27.71
11343;BME280;5726;42.160;24.746;2023-07-20T07:53:07;98872.41;;;40.33;27.69
11343;BME280;5726;42.160;24.746;2023-07-20T07:55:32;98866.31;;;40.40;26.80
11343;BME280;5726;42.160;24.746;2023-07-20T07:57:58;98868.91;;;40.44;27.34
11343;BME280;5726;42.160;24.746;2023-07-20T08:00:23;98864.13;;;40.61;26.95
11343;BME280;5726;42.160;24.746;2023-07-20T08:02:50;98873.13;;;40.70;26.75
11343;BME280;5726;42.160;24.746;2023-07-20T08:05:16;98869.06;;;40.82;26.96
11343;BME280;5726;42.160;24.746;2023-07-20T08:07:42;98866.44;;;40.62;26.72
11343;BME280;5726;42.160;24.746;2023-07-20T08:10:07;98876.19;;;40.72;27.10
11343;BME280;5726;42.160;24.746;2023-07-20T08:12:33;98873.19;;;40.92;26.30
11343;BME280;5726;42.160;24.746;2023-07-20T08:14:59;98876.91;;;40.56;26.32
11343;BME280;5726;42.160;24.746;2023-07-20T08:17:24;98865.72;;;40.73;25.89
11343;BME280;5726;42.160;24.746;2023-07-20T08:19:50;98872.22;;;40.48;25.90
11343;BME280;5726;42.160;24.746;2023-07-20T08:22:15;98875.75;;;40.37;26.54
11343;BME280;5726;42.160;24.746;2023-07-20T08:24:41;98870.91;;;40.43;26.15
11343;BME280;5726;42.160;24.746;2023-07-20T08:27:08;98881.03;;;40.19;26.18
11343;BME280;5726;42.160;24.746;2023-07-20T08:29:37;98876.06;;;39.47;27.66
11343;BME280;5726;42.160;24.746;2023-07-20T08:32:03;98872.72;;;39.43;28.09
11343;BME280;5726;42.160;24.746;2023-07-20T08:34:29;98880.78;;;39.61;27.76
11343;BME280;5726;42.160;24.746;2023-07-20T08:36:55;98884.13;;;39.90;27.63
11343;BME280;5726;42.160;24.746;2023-07-20T08:39:21;98888.69;;;40.19;27.16
11343;BME280;5726;42.160;24.746;2023-07-20T08:41:48;98873.88;;;40.65;26.17
11343;BME280;5726;42.160;24.746;2023-07-20T08:44:13;98879.59;;;40.40;26.58
11343;BME280;5726;42.160;24.746;2023-07-20T08:46:40;98865.31;;;40.43;26.60
11343;BME280;5726;42.160;24.746;2023-07-20T08:49:06;98869.53;;;40.23;26.89
11343;BME280;5726;42.160;24.746;2023-07-20T08:51:32;98877.06;;;40.06;27.44
11343;BME280;5726;42.160;24.746;2023-07-20T08:53:59;98866.06;;;39.41;27.94
11343;BME280;5726;42.160;24.746;2023-07-20T08:56:25;98853.97;;;39.60;28.11
11343;BME280;5726;42.160;24.746;2023-07-20T08:58:54;98857.69;;;39.46;27.80
11343;BME280;5726;42.160;24.746;2023-07-20T09:01:21;98854.06;;;39.71;28.42
11343;BME280;5726;42.160;24.746;2023-07-20T09:03:47;98850.09;;;39.83;27.84
11343;BME280;5726;42.160;24.746;2023-07-20T09:06:13;98848.28;;;39.80;27.99
11343;BME280;5726;42.160;24.746;2023-07-20T09:08:42;98846.81;;;39.90;27.61
11343;BME280;5726;42.160;24.746;2023-07-20T09:11:07;98832.06;;;40.00;27.42
11343;BME280;5726;42.160;24.746;2023-07-20T09:13:34;98826.47;;;39.14;28.05
11343;BME280;5726;42.160;24.746;2023-07-20T09:15:59;98838.34;;;39.28;28.58
11343;BME280;5726;42.160;24.746;2023-07-20T09:18:29;98835.41;;;39.37;28.45
11343;BME280;5726;42.160;24.746;2023-07-20T09:21:05;98835.78;;;39.50;28.45
11343;BME280;5726;42.160;24.746;2023-07-20T09:23:34;98829.78;;;39.37;27.95
11343;BME280;5726;42.160;24.746;2023-07-20T09:26:00;98824.06;;;39.27;28.25
11343;BME280;5726;42.160;24.746;2023-07-20T09:28:26;98814.41;;;39.89;28.07
11343;BME280;5726;42.160;24.746;2023-07-20T09:30:54;98804.78;;;39.39;27.84
11343;BME280;5726;42.160;24.746;2023-07-20T09:33:24;98802.66;;;39.04;28.93
11343;BME280;5726;42.160;24.746;2023-07-20T09:35:49;98803.00;;;38.66;28.96
11343;BME280;5726;42.160;24.746;2023-07-20T09:38:15;98811.38;;;38.86;28.82
11343;BME280;5726;42.160;24.746;2023-07-20T09:40:41;98807.13;;;38.90;28.95
11343;BME280;5726;42.160;24.746;2023-07-20T09:43:10;98793.81;;;39.72;27.95
11343;BME280;5726;42.160;24.746;2023-07-20T09:45:40;98793.63;;;39.76;28.03
11343;BME280;5726;42.160;24.746;2023-07-20T09:48:10;98796.28;;;39.59;27.24
11343;BME280;5726;42.160;24.746;2023-07-20T09:50:49;98796.66;;;39.41;27.63
11343;BME280;5726;42.160;24.746;2023-07-20T09:53:16;98793.31;;;39.37;28.31
11343;BME280;5726;42.160;24.746;2023-07-20T09:55:44;98784.06;;;39.31;28.07
11343;BME280;5726;42.160;24.746;2023-07-20T09:58:10;98768.75;;;39.63;28.70
11343;BME280;5726;42.160;24.746;2023-07-20T10:00:37;98767.56;;;39.14;28.37
11343;BME280;5726;42.160;24.746;2023-07-20T10:03:04;98764.00;;;38.63;28.76
11343;BME280;5726;42.160;24.746;2023-07-20T10:05:33;98763.59;;;38.50;29.27
11343;BME280;5726;42.160;24.746;2023-07-20T10:08:01;98769.19;;;38.50;29.62
11343;BME280;5726;42.160;24.746;2023-07-20T10:10:28;98766.56;;;38.66;29.11
11343;BME280;5726;42.160;24.746;2023-07-20T10:12:57;98758.72;;;38.70;28.79
11343;BME280;5726;42.160;24.746;2023-07-20T10:15:43;98769.38;;;38.66;28.28
11343;BME280;5726;42.160;24.746;2023-07-20T10:20:42;98744.25;;;38.32;30.40
11343;BME280;5726;42.160;24.746;2023-07-20T10:23:08;98739.38;;;38.32;29.53
11343;BME280;5726;42.160;24.746;2023-07-20T10:25:35;98737.63;;;38.55;29.53
11343;BME280;5726;42.160;24.746;2023-07-20T10:28:07;98734.16;;;38.00;30.40
11343;BME280;5726;42.160;24.746;2023-07-20T10:30:34;98736.84;;;38.09;29.97
11343;BME280;5726;42.160;24.746;2023-07-20T10:33:01;98725.66;;;37.95;30.07
11343;BME280;5726;42.160;24.746;2023-07-20T10:35:27;98723.88;;;38.12;30.15
11343;BME280;5726;42.160;24.746;2023-07-20T10:37:54;98721.41;;;38.39;29.74
11343;BME280;5726;42.160;24.746;2023-07-20T10:40:39;98717.00;;;38.13;28.99
11343;BME280;5726;42.160;24.746;2023-07-20T10:43:06;98716.44;;;38.29;28.13
11343;BME280;5726;42.160;24.746;2023-07-20T10:48:04;98717.47;;;38.76;28.24
11343;BME280;5726;42.160;24.746;2023-07-20T10:50:32;98717.97;;;38.75;28.04
11343;BME280;5726;42.160;24.746;2023-07-20T10:53:24;98712.34;;;38.29;27.92
11343;BME280;5726;42.160;24.746;2023-07-20T10:56:05;98712.09;;;38.28;27.20
11343;BME280;5726;42.160;24.746;2023-07-20T10:58:31;98707.47;;;38.25;26.63
11343;BME280;5726;42.160;24.746;2023-07-20T11:01:01;98701.31;;;38.21;26.23
11343;BME280;5726;42.160;24.746;2023-07-20T11:03:31;98697.50;;;38.24;26.58
11343;BME280;5726;42.160;24.746;2023-07-20T11:05:58;98687.69;;;38.53;26.31
11343;BME280;5726;42.160;24.746;2023-07-20T11:08:43;98681.13;;;38.36;26.50
11343;BME280;5726;42.160;24.746;2023-07-20T11:11:29;98686.31;;;38.24;26.26
11343;BME280;5726;42.160;24.746;2023-07-20T11:14:21;98685.88;;;38.30;26.86
11343;BME280;5726;42.160;24.746;2023-07-20T11:16:47;98677.06;;;38.18;26.93
11343;BME280;5726;42.160;24.746;2023-07-20T11:19:26;98685.81;;;38.25;27.16
11343;BME280;5726;42.160;24.746;2023-07-20T11:21:58;98686.78;;;38.42;27.13
11343;BME280;5726;42.160;24.746;2023-07-20T11:24:24;98681.25;;;38.47;27.13
11343;BME280;5726;42.160;24.746;2023-07-20T11:27:08;98676.75;;;38.55;26.33
11343;BME280;5726;42.160;24.746;2023-07-20T11:29:35;98675.16;;;38.49;26.31
11343;BME280;5726;42.160;24.746;2023-07-20T11:32:02;98662.91;;;38.46;26.74
11343;BME280;5726;42.160;24.746;2023-07-20T11:34:30;98663.03;;;38.37;27.00
11343;BME280;5726;42.160;24.746;2023-07-20T11:36:56;98650.69;;;38.24;27.11
11343;BME280;5726;42.160;24.746;2023-07-20T11:39:22;98656.88;;;38.08;27.46
11343;BME280;5726;42.160;24.746;2023-07-20T11:41:52;98655.66;;;38.40;27.06
11343;BME280;5726;42.160;24.746;2023-07-20T11:44:19;98644.34;;;38.29;26.79
11343;BME280;5726;42.160;24.746;2023-07-20T11:46:46;98641.16;;;38.41;27.03
11343;BME280;5726;42.160;24.746;2023-07-20T11:49:11;98646.19;;;38.57;26.77
11343;BME280;5726;42.160;24.746;2023-07-20T11:51:38;98644.28;;;38.24;27.19
11343;BME280;5726;42.160;24.746;2023-07-20T11:54:07;98638.41;;;38.22;27.39
11343;BME280;5726;42.160;24.746;2023-07-20T11:56:33;98640.06;;;38.33;26.81
11343;BME280;5726;42.160;24.746;2023-07-20T11:58:59;98646.50;;;38.39;27.39
11343;BME280;5726;42.160;24.746;2023-07-20T12:01:25;98641.94;;;38.67;27.47
11343;BME280;5726;42.160;24.746;2023-07-20T12:03:55;98642.94;;;38.64;27.32
11343;BME280;5726;42.160;24.746;2023-07-20T12:06:25;98622.03;;;38.65;27.08
11343;BME280;5726;42.160;24.746;2023-07-20T12:08:53;98627.88;;;38.62;27.26
11343;BME280;5726;42.160;24.746;2023-07-20T12:11:34;98630.84;;;38.53;27.76
11343;BME280;5726;42.160;24.746;2023-07-20T12:14:00;98598.44;;;38.77;27.42
11343;BME280;5726;42.160;24.746;2023-07-20T12:16:29;98610.38;;;38.72;27.28
11343;BME280;5726;42.160;24.746;2023-07-20T12:19:09;98601.59;;;38.59;27.55
11343;BME280;5726;42.160;24.746;2023-07-20T12:21:36;98599.72;;;38.76;27.73
11343;BME280;5726;42.160;24.746;2023-07-20T12:24:03;98589.22;;;38.46;27.20
11343;BME280;5726;42.160;24.746;2023-07-20T12:26:30;98588.81;;;38.28;27.69
11343;BME280;5726;42.160;24.746;2023-07-20T12:28:56;98570.94;;;38.50;27.43
11343;BME280;5726;42.160;24.746;2023-07-20T12:31:22;98568.59;;;38.74;27.77
11343;BME280;5726;42.160;24.746;2023-07-20T12:33:50;98562.47;;;38.70;27.31
11343;BME280;5726;42.160;24.746;2023-07-20T12:36:16;98559.50;;;39.26;27.35
11343;BME280;5726;42.160;24.746;2023-07-20T12:38:41;98553.28;;;39.47;26.42
11343;BME280;5726;42.160;24.746;2023-07-20T12:41:07;98551.53;;;39.61;26.27
11343;BME280;5726;42.160;24.746;2023-07-20T12:43:33;98541.66;;;39.87;26.22
11343;BME280;5726;42.160;24.746;2023-07-20T12:45:59;98535.28;;;39.76;26.46
11343;BME280;5726;42.160;24.746;2023-07-20T12:48:24;98533.75;;;39.85;26.17
11343;BME280;5726;42.160;24.746;2023-07-20T12:50:50;98534.88;;;39.46;26.42
11343;BME280;5726;42.160;24.746;2023-07-20T12:53:15;98531.53;;;39.42;25.76
11343;BME280;5726;42.160;24.746;2023-07-20T12:55:41;98546.47;;;39.18;26.15
11343;BME280;5726;42.160;24.746;2023-07-20T12:58:08;98543.38;;;39.16;26.12
11343;BME280;5726;42.160;24.746;2023-07-20T13:00:33;98540.84;;;39.18;26.52
11343;BME280;5726;42.160;24.746;2023-07-20T13:02:59;98555.16;;;39.20;26.26
11343;BME280;5726;42.160;24.746;2023-07-20T13:05:24;98554.19;;;39.28;26.43
11343;BME280;5726;42.160;24.746;2023-07-20T13:07:50;98558.94;;;39.17;26.95
11343;BME280;5726;42.160;24.746;2023-07-20T13:10:16;98567.47;;;38.91;27.19
11343;BME280;5726;42.160;24.746;2023-07-20T13:12:41;98564.22;;;39.04;27.35
11343;BME280;5726;42.160;24.746;2023-07-20T13:15:08;98571.22;;;39.19;26.96
11343;BME280;5726;42.160;24.746;2023-07-20T13:17:38;98566.72;;;39.38;26.66